Time;durP1;ratioP1;P1;durP2;ratioP2;P2;SDS_P1;SDS_P2;PMS_P1;PMS_P2;Temp;Humidity;BMP_temperature;BMP_pressure;BME280_temperature;BME280_humidity;BME280_pressure;Samples;Min_cycle;Max_cycle;Signal;HPM_P1;HPM_P2
2020/12/30 00:01:10;;;;;;;21.00;14.20;;;5.20;99.90;;;;;;5008525;28;20669;-68
2020/12/30 00:03:54;;;;;;;20.20;14.73;;;5.30;99.90;;;;;;5009155;28;20670;-68
2020/12/30 00:06:39;;;;;;;22.60;15.00;;;5.30;99.90;;;;;;5012494;28;20713;-67
2020/12/30 00:09:23;;;;;;;19.30;14.30;;;5.30;99.90;;;;;;5011815;28;20733;-67
2020/12/30 00:12:07;;;;;;;22.63;15.67;;;5.40;99.90;;;;;;5022892;28;20615;-68
2020/12/30 00:14:52;;;;;;;23.67;16.07;;;5.40;99.90;;;;;;5001718;28;20650;-68
2020/12/30 00:17:39;;;;;;;25.33;16.50;;;5.50;99.90;;;;;;5007066;28;20756;-68
2020/12/30 00:20:28;;;;;;;22.17;16.73;;;5.40;99.90;;;;;;5011128;28;20714;-67
2020/12/30 00:23:12;;;;;;;21.97;15.87;;;5.40;99.90;;;;;;5024276;28;21268;-68
2020/12/30 00:25:57;;;;;;;23.47;16.47;;;5.50;99.90;;;;;;5015033;28;20938;-67
2020/12/30 00:28:42;;;;;;;25.20;17.30;;;5.50;99.90;;;;;;5011558;28;21177;-67
2020/12/30 00:31:30;;;;;;;23.57;15.93;;;5.50;99.90;;;;;;5001669;28;20584;-68
2020/12/30 00:34:14;;;;;;;26.50;18.20;;;5.60;99.90;;;;;;5008981;28;20672;-68
2020/12/30 00:36:59;;;;;;;25.90;16.93;;;5.50;99.90;;;;;;5027444;28;20701;-67
2020/12/30 00:39:44;;;;;;;26.23;18.23;;;5.50;99.90;;;;;;5002906;28;20702;-67
2020/12/30 00:42:32;;;;;;;28.53;20.17;;;5.60;99.90;;;;;;5009466;28;20853;-68
2020/12/30 00:45:16;;;;;;;26.10;19.17;;;5.50;99.90;;;;;;5016034;28;20571;-68
2020/12/30 00:48:01;;;;;;;27.57;19.47;;;5.60;99.90;;;;;;5010053;28;20599;-68
2020/12/30 00:50:48;;;;;;;30.27;19.67;;;5.50;99.90;;;;;;5013675;28;20591;-68
2020/12/30 00:53:41;;;;;;;28.37;20.77;;;5.50;99.90;;;;;;5018830;28;20673;-68
2020/12/30 00:56:27;;;;;;;28.00;19.97;;;5.50;99.90;;;;;;4995880;28;20631;-68
2020/12/30 00:59:12;;;;;;;30.50;21.53;;;5.50;99.90;;;;;;5010825;28;20665;-68
2020/12/30 01:01:57;;;;;;;31.50;20.67;;;5.50;99.90;;;;;;5025034;28;20602;-67
2020/12/30 01:04:42;;;;;;;29.33;21.13;;;5.50;99.90;;;;;;5017348;28;20716;-67
2020/12/30 01:07:26;;;;;;;26.80;19.23;;;5.50;99.90;;;;;;5024942;28;20625;-67
2020/12/30 01:10:11;;;;;;;32.70;22.60;;;5.50;99.90;;;;;;5016448;28;20708;-68
2020/12/30 01:12:55;;;;;;;31.40;21.23;;;5.60;99.90;;;;;;5006880;28;20661;-67
2020/12/30 01:15:40;;;;;;;34.07;21.93;;;5.50;99.90;;;;;;5007902;28;20595;-67
2020/12/30 01:18:28;;;;;;;28.90;20.80;;;5.60;99.90;;;;;;5017309;28;20670;-67
2020/12/30 01:21:13;;;;;;;29.57;20.70;;;5.70;99.90;;;;;;5020450;28;20642;-67
2020/12/30 01:23:57;;;;;;;34.33;23.40;;;5.60;99.90;;;;;;4999442;28;20694;-67
2020/12/30 01:26:46;;;;;;;33.97;21.67;;;5.50;99.90;;;;;;5011716;28;21137;-68
2020/12/30 01:29:30;;;;;;;32.83;22.93;;;5.50;99.90;;;;;;5026685;28;20598;-67
2020/12/30 01:32:15;;;;;;;32.10;22.57;;;5.60;99.90;;;;;;5004882;28;20610;-66
2020/12/30 01:34:59;;;;;;;34.37;22.43;;;5.60;99.90;;;;;;4998718;28;21262;-68
2020/12/30 01:37:44;;;;;;;32.97;21.20;;;5.50;99.90;;;;;;4996690;28;20671;-68
2020/12/30 01:40:28;;;;;;;34.40;22.97;;;5.60;99.90;;;;;;5018450;28;21167;-68
2020/12/30 01:43:20;;;;;;;35.70;22.67;;;5.70;99.90;;;;;;5018728;28;20643;-68
2020/12/30 01:46:05;;;;;;;34.53;21.83;;;5.70;99.90;;;;;;5007316;28;20635;-67
2020/12/30 01:48:50;;;;;;;36.13;23.00;;;5.70;99.90;;;;;;5023860;28;20582;-67
2020/12/30 01:51:37;;;;;;;34.30;23.00;;;5.70;99.90;;;;;;5002969;28;20662;-68
2020/12/30 01:54:26;;;;;;;32.93;21.83;;;5.70;99.90;;;;;;4994305;28;20667;-66
2020/12/30 01:57:11;;;;;;;32.37;21.50;;;5.70;99.90;;;;;;5011291;28;20590;-68
2020/12/30 01:59:56;;;;;;;29.07;20.10;;;5.70;99.90;;;;;;5007195;28;20666;-68
2020/12/30 02:02:47;;;;;;;34.53;21.47;;;5.80;99.90;;;;;;5010838;28;20677;-67
2020/12/30 02:05:34;;;;;;;34.23;22.97;;;5.70;99.90;;;;;;5023449;28;20896;-68
2020/12/30 02:08:19;;;;;;;35.27;22.80;;;5.70;99.90;;;;;;5013337;28;21091;-68
2020/12/30 02:11:04;;;;;;;32.10;22.20;;;5.70;99.90;;;;;;4981129;28;20648;-67
2020/12/30 02:13:58;;;;;;;30.97;22.63;;;5.70;99.90;;;;;;4995553;28;20978;-68
2020/12/30 02:16:56;;;;;;;30.70;21.77;;;5.70;99.90;;;;;;5003342;28;20766;-68
2020/12/30 02:19:41;;;;;;;29.93;21.33;;;5.70;99.90;;;;;;5013185;28;20631;-68
2020/12/30 02:22:29;;;;;;;34.63;23.20;;;5.70;99.90;;;;;;5004867;28;20740;-68
2020/12/30 02:25:14;;;;;;;32.63;22.13;;;5.70;99.90;;;;;;5004927;28;21087;-68
2020/12/30 02:27:58;;;;;;;31.23;21.97;;;5.80;99.90;;;;;;5018054;28;20618;-67
2020/12/30 02:30:42;;;;;;;30.43;21.60;;;5.80;99.90;;;;;;5023780;28;21068;-68
2020/12/30 02:33:29;;;;;;;33.93;22.07;;;5.80;99.90;;;;;;5004431;28;20683;-68
2020/12/30 02:36:14;;;;;;;30.93;20.57;;;5.70;99.90;;;;;;5025187;28;21205;-66
2020/12/30 02:38:58;;;;;;;31.37;21.77;;;5.70;99.90;;;;;;5005099;28;21061;-67
2020/12/30 02:41:42;;;;;;;36.07;23.10;;;5.80;99.90;;;;;;5023262;28;20670;-68
2020/12/30 02:44:27;;;;;;;28.03;21.60;;;5.70;99.90;;;;;;5009944;28;20646;-69
2020/12/30 02:47:11;;;;;;;32.47;21.80;;;5.70;99.90;;;;;;5006938;28;20938;-68
2020/12/30 02:49:56;;;;;;;29.30;22.53;;;5.70;99.90;;;;;;5020020;28;20584;-69
2020/12/30 02:52:48;;;;;;;29.00;21.40;;;5.70;99.90;;;;;;5020083;28;20643;-69
2020/12/30 02:55:33;;;;;;;28.03;21.07;;;5.70;99.90;;;;;;5011724;28;20940;-69
2020/12/30 02:58:17;;;;;;;33.13;21.10;;;5.80;99.90;;;;;;5011837;28;20657;-69
2020/12/30 03:01:07;;;;;;;29.17;21.77;;;5.80;99.90;;;;;;5008402;28;20765;-69
2020/12/30 03:03:52;;;;;;;28.17;20.03;;;5.90;99.90;;;;;;5007049;28;21367;-68
2020/12/30 03:06:38;;;;;;;28.50;21.17;;;5.80;99.90;;;;;;5003318;28;20599;-69
2020/12/30 03:09:22;;;;;;;31.30;21.00;;;5.80;99.90;;;;;;5014608;28;21478;-69
2020/12/30 03:12:07;;;;;;;27.27;20.00;;;5.80;99.90;;;;;;4993686;28;20547;-68
2020/12/30 03:14:51;;;;;;;29.33;20.50;;;5.80;99.90;;;;;;5007580;28;21228;-69
2020/12/30 03:17:36;;;;;;;30.27;21.87;;;5.80;99.90;;;;;;5009040;28;20635;-68
2020/12/30 03:20:21;;;;;;;27.23;20.00;;;5.70;99.90;;;;;;5021061;28;20695;-68
2020/12/30 03:23:05;;;;;;;29.37;20.37;;;5.70;99.90;;;;;;5025174;22;20679;-70
2020/12/30 03:25:50;;;;;;;26.60;19.87;;;5.60;99.90;;;;;;5008362;28;20639;-68
2020/12/30 03:28:34;;;;;;;28.37;20.43;;;5.70;99.90;;;;;;4996286;28;20631;-68
2020/12/30 03:31:19;;;;;;;29.20;21.40;;;5.70;99.90;;;;;;4995215;28;20619;-69
2020/12/30 03:34:04;;;;;;;28.83;21.20;;;5.60;99.90;;;;;;5000831;28;20665;-69
2020/12/30 03:36:48;;;;;;;29.53;21.47;;;5.70;99.90;;;;;;5011370;28;20777;-69
2020/12/30 03:39:33;;;;;;;28.90;21.00;;;5.60;99.90;;;;;;5003885;28;20852;-69
2020/12/30 03:42:17;;;;;;;30.20;20.07;;;5.60;99.90;;;;;;5010234;28;20575;-69
2020/12/30 03:45:03;;;;;;;28.40;20.40;;;5.60;99.90;;;;;;5012788;28;20743;-70
2020/12/30 03:47:47;;;;;;;29.40;20.93;;;5.70;99.90;;;;;;5012475;28;20626;-69
2020/12/30 03:50:32;;;;;;;28.70;19.17;;;5.60;99.90;;;;;;5024658;28;20617;-69
2020/12/30 03:53:16;;;;;;;25.80;18.97;;;5.70;99.90;;;;;;5011884;28;20997;-69
2020/12/30 03:56:01;;;;;;;25.87;18.93;;;5.70;99.90;;;;;;5008917;28;20979;-69
2020/12/30 03:58:45;;;;;;;25.33;18.53;;;5.70;99.90;;;;;;4994730;28;20586;-69
2020/12/30 04:01:30;;;;;;;25.83;18.73;;;5.70;99.90;;;;;;5014446;28;20689;-69
2020/12/30 04:04:15;;;;;;;25.77;18.10;;;5.60;99.90;;;;;;5008202;28;20654;-69
2020/12/30 04:06:59;;;;;;;24.43;17.90;;;5.60;99.90;;;;;;5001950;28;20927;-69
2020/12/30 04:09:44;;;;;;;26.50;18.67;;;5.50;99.90;;;;;;5004357;28;20611;-69
2020/12/30 04:12:28;;;;;;;22.60;17.63;;;5.60;99.90;;;;;;4998539;28;20651;-70
2020/12/30 04:15:13;;;;;;;24.07;17.70;;;5.60;99.90;;;;;;5012579;28;20779;-69
2020/12/30 04:17:57;;;;;;;24.07;17.10;;;5.60;99.90;;;;;;5013441;28;20639;-69
2020/12/30 04:20:41;;;;;;;25.07;18.10;;;5.70;99.90;;;;;;5022540;28;20598;-70
2020/12/30 04:23:26;;;;;;;25.43;17.30;;;5.70;99.90;;;;;;5014727;28;21285;-70
2020/12/30 04:26:11;;;;;;;27.00;18.73;;;5.60;99.90;;;;;;5009059;28;20595;-70
2020/12/30 04:28:56;;;;;;;26.47;18.57;;;5.60;99.90;;;;;;5026855;28;21232;-69
2020/12/30 04:31:41;;;;;;;27.83;20.00;;;5.70;99.90;;;;;;5008163;28;21228;-69
2020/12/30 04:34:27;;;;;;;27.07;19.10;;;5.70;99.90;;;;;;5015122;28;20669;-69
2020/12/30 04:37:13;;;;;;;26.03;18.70;;;5.70;99.90;;;;;;5031854;28;20650;-70
2020/12/30 04:39:58;;;;;;;25.53;18.10;;;5.70;99.90;;;;;;5005793;28;20579;-69
2020/12/30 04:42:45;;;;;;;23.97;17.60;;;5.60;99.90;;;;;;5007679;28;20662;-69
2020/12/30 04:45:30;;;;;;;24.97;18.33;;;5.70;99.90;;;;;;5019242;28;20619;-69
2020/12/30 04:48:15;;;;;;;26.10;19.57;;;5.70;99.90;;;;;;5014910;28;20744;-70
2020/12/30 04:51:01;;;;;;;25.97;18.90;;;5.70;99.90;;;;;;5017884;28;20943;-69
2020/12/30 04:53:48;;;;;;;29.27;20.10;;;5.70;99.90;;;;;;5015743;28;20760;-69
2020/12/30 04:56:37;;;;;;;30.00;19.80;;;5.70;99.90;;;;;;5013336;28;20595;-69
2020/12/30 04:59:26;;;;;;;27.80;19.17;;;5.70;99.90;;;;;;5008901;28;20622;-69
2020/12/30 05:02:12;;;;;;;26.93;19.30;;;5.60;99.90;;;;;;4998474;28;20607;-70
2020/12/30 05:04:57;;;;;;;24.40;18.40;;;5.70;99.90;;;;;;5014904;28;20986;-70
2020/12/30 05:07:45;;;;;;;26.80;19.83;;;5.70;99.90;;;;;;5006218;28;20786;-69
2020/12/30 05:10:29;;;;;;;26.77;19.37;;;5.70;99.90;;;;;;5018324;28;20714;-69
2020/12/30 05:13:14;;;;;;;27.67;19.77;;;5.70;99.90;;;;;;5014669;28;20739;-70
2020/12/30 05:15:58;;;;;;;25.53;18.23;;;5.70;99.90;;;;;;5016562;28;20622;-69
2020/12/30 05:18:42;;;;;;;25.77;19.27;;;5.70;99.90;;;;;;5014812;28;20709;-69
2020/12/30 05:21:27;;;;;;;27.90;19.17;;;5.60;99.90;;;;;;5015685;28;20720;-70
2020/12/30 05:24:12;;;;;;;26.40;19.30;;;5.60;99.90;;;;;;5001836;28;20919;-69
2020/12/30 05:26:59;;;;;;;27.70;19.87;;;5.60;99.90;;;;;;5016300;28;21192;-69
2020/12/30 05:29:52;;;;;;;24.80;17.97;;;5.60;99.90;;;;;;5010112;28;21204;-69
2020/12/30 05:32:37;;;;;;;25.63;18.80;;;5.50;99.90;;;;;;5004359;28;21188;-69
2020/12/30 05:35:22;;;;;;;25.87;18.67;;;5.50;99.90;;;;;;5016555;28;20610;-69
2020/12/30 05:38:06;;;;;;;24.93;17.97;;;5.50;99.90;;;;;;5013960;28;20655;-69
2020/12/30 05:40:51;;;;;;;27.00;19.93;;;5.50;99.90;;;;;;5012470;28;21043;-70
2020/12/30 05:43:35;;;;;;;26.40;18.40;;;5.60;99.90;;;;;;5022843;28;20715;-69
2020/12/30 05:46:28;;;;;;;24.10;18.53;;;5.50;99.90;;;;;;5009257;28;20625;-69
2020/12/30 05:49:31;;;;;;;30.03;19.47;;;5.50;99.90;;;;;;5017293;28;20626;-70
2020/12/30 05:52:24;;;;;;;28.70;21.00;;;5.60;99.90;;;;;;5011440;28;20744;-69
2020/12/30 05:55:09;;;;;;;24.10;18.50;;;5.60;99.90;;;;;;5010350;28;20681;-70
2020/12/30 05:57:54;;;;;;;24.23;18.53;;;5.60;99.90;;;;;;5009623;28;20603;-69
2020/12/30 06:00:38;;;;;;;24.40;17.77;;;5.60;99.90;;;;;;5019297;28;20953;-69
2020/12/30 06:03:28;;;;;;;26.53;19.27;;;5.50;99.90;;;;;;5001077;28;21018;-70
2020/12/30 06:06:19;;;;;;;28.13;19.53;;;5.60;99.90;;;;;;5020029;28;20750;-69
2020/12/30 06:09:05;;;;;;;25.67;18.20;;;5.50;99.90;;;;;;5008899;28;20619;-69
2020/12/30 06:11:52;;;;;;;24.30;18.50;;;5.60;99.90;;;;;;5009626;28;20993;-70
2020/12/30 06:14:38;;;;;;;25.93;17.30;;;5.60;99.90;;;;;;5000252;28;20663;-69
2020/12/30 06:17:30;;;;;;;25.90;18.20;;;5.60;99.90;;;;;;5011986;28;21069;-69
2020/12/30 06:20:25;;;;;;;24.33;17.27;;;5.60;99.90;;;;;;5016387;28;20665;-69
2020/12/30 06:23:11;;;;;;;28.30;18.30;;;5.60;99.90;;;;;;5008613;28;20663;-69
2020/12/30 06:25:58;;;;;;;27.00;18.33;;;5.60;99.90;;;;;;4997230;28;20779;-69
2020/12/30 06:28:49;;;;;;;24.73;17.83;;;5.50;99.90;;;;;;5000810;28;20592;-69
2020/12/30 06:31:48;;;;;;;21.40;15.63;;;5.50;99.90;;;;;;5023766;28;20634;-69
2020/12/30 06:34:36;;;;;;;22.00;17.00;;;5.50;99.90;;;;;;5000959;28;20674;-69
2020/12/30 06:37:34;;;;;;;22.70;17.10;;;5.50;99.90;;;;;;5008752;28;20611;-70
2020/12/30 06:40:22;;;;;;;23.93;16.20;;;5.60;99.90;;;;;;5002949;28;21052;-69
2020/12/30 06:43:08;;;;;;;22.67;17.23;;;5.60;99.90;;;;;;5020250;28;20623;-69
2020/12/30 06:45:53;;;;;;;20.43;16.87;;;5.50;99.90;;;;;;5014691;28;20917;-70
2020/12/30 06:48:53;;;;;;;22.37;17.30;;;5.50;99.90;;;;;;5008037;28;21349;-69
2020/12/30 06:51:40;;;;;;;23.87;18.90;;;5.50;99.90;;;;;;5018279;28;21069;-69
2020/12/30 06:54:44;;;;;;;25.47;17.97;;;5.50;99.90;;;;;;5004147;28;20678;-70
2020/12/30 06:57:40;;;;;;;24.20;17.60;;;5.40;99.90;;;;;;5007990;28;20654;-70
2020/12/30 07:00:35;;;;;;;25.53;17.97;;;5.40;99.90;;;;;;5008437;28;20630;-69
2020/12/30 07:03:20;;;;;;;22.07;17.60;;;5.40;99.90;;;;;;4997744;28;20646;-70
2020/12/30 07:06:27;;;;;;;24.50;17.03;;;5.30;99.90;;;;;;4979519;28;20613;-70
2020/12/30 07:09:13;;;;;;;26.40;18.63;;;5.40;99.90;;;;;;5024367;28;20594;-69
2020/12/30 07:12:03;;;;;;;22.77;17.77;;;5.40;99.90;;;;;;5007959;28;20717;-68
2020/12/30 07:14:48;;;;;;;22.77;18.60;;;5.50;99.90;;;;;;5000273;28;20670;-70
2020/12/30 07:17:34;;;;;;;23.10;17.90;;;5.50;99.90;;;;;;5003745;28;21449;-69
2020/12/30 07:20:22;;;;;;;21.97;17.67;;;5.50;99.90;;;;;;5006829;28;20598;-69
2020/12/30 07:23:10;;;;;;;22.70;16.97;;;5.60;99.90;;;;;;5005597;28;20655;-70
2020/12/30 07:25:58;;;;;;;23.47;17.93;;;5.60;99.90;;;;;;5002557;28;21014;-70
2020/12/30 07:28:44;;;;;;;21.93;17.40;;;5.70;99.90;;;;;;5012149;28;20618;-70
2020/12/30 07:31:35;;;;;;;25.17;17.70;;;5.70;99.90;;;;;;5011789;28;21168;-69
2020/12/30 07:34:23;;;;;;;27.00;19.43;;;5.60;99.90;;;;;;5008082;28;20830;-69
2020/12/30 07:37:08;;;;;;;25.67;18.20;;;5.60;99.90;;;;;;5019225;28;20591;-69
2020/12/30 07:39:53;;;;;;;25.10;19.37;;;5.50;99.90;;;;;;5011477;28;20628;-69
2020/12/30 07:42:37;;;;;;;26.27;19.33;;;5.50;99.90;;;;;;5010379;28;20681;-70
2020/12/30 07:45:22;;;;;;;24.13;17.90;;;5.50;99.90;;;;;;5007829;28;20649;-69
2020/12/30 07:48:09;;;;;;;27.00;19.50;;;5.50;99.90;;;;;;5009457;28;20597;-70
2020/12/30 07:50:54;;;;;;;26.60;19.47;;;5.50;99.90;;;;;;5029571;28;20614;-69
2020/12/30 07:53:38;;;;;;;23.90;19.00;;;5.40;99.90;;;;;;5007250;28;20666;-69
2020/12/30 07:56:24;;;;;;;25.13;18.40;;;5.40;99.90;;;;;;5010176;28;20592;-70
2020/12/30 07:59:09;;;;;;;24.90;17.63;;;5.40;99.90;;;;;;5017838;28;20661;-70
2020/12/30 08:02:05;;;;;;;21.87;18.30;;;5.40;99.90;;;;;;5008232;28;20729;-69
2020/12/30 08:05:00;;;;;;;27.87;19.80;;;5.50;99.90;;;;;;5013541;28;20649;-69
2020/12/30 08:07:46;;;;;;;24.07;18.00;;;5.50;99.90;;;;;;5018598;28;20571;-70
2020/12/30 08:10:31;;;;;;;23.10;18.10;;;5.50;99.90;;;;;;5017290;28;20622;-70
2020/12/30 08:13:15;;;;;;;23.77;18.60;;;5.60;99.90;;;;;;5002528;28;20649;-70
2020/12/30 08:15:59;;;;;;;23.63;18.07;;;5.60;99.90;;;;;;5011154;28;20607;-69
2020/12/30 08:18:51;;;;;;;25.47;19.43;;;5.60;99.90;;;;;;5014109;28;20778;-69
2020/12/30 08:21:35;;;;;;;24.20;18.33;;;5.50;99.90;;;;;;5003686;28;20802;-70
2020/12/30 08:24:20;;;;;;;21.90;18.00;;;5.50;99.90;;;;;;5004738;28;21327;-70
2020/12/30 08:27:05;;;;;;;23.30;17.53;;;5.40;99.90;;;;;;5010406;28;20598;-70
2020/12/30 08:29:50;;;;;;;20.33;17.23;;;5.40;99.90;;;;;;5017838;28;20591;-70
2020/12/30 08:32:35;;;;;;;28.23;18.57;;;5.50;99.90;;;;;;5021357;28;20744;-70
2020/12/30 08:35:27;;;;;;;24.27;17.63;;;5.40;99.90;;;;;;5014988;28;20674;-70
2020/12/30 08:38:19;;;;;;;22.10;17.03;;;5.40;99.90;;;;;;5010342;28;20598;-71
2020/12/30 08:41:07;;;;;;;26.67;19.13;;;5.50;99.90;;;;;;5019454;28;20587;-71
2020/12/30 08:43:57;;;;;;;22.17;17.50;;;5.40;99.90;;;;;;5001164;28;20650;-70
2020/12/30 08:46:47;;;;;;;24.50;17.33;;;5.40;99.90;;;;;;5001969;28;20738;-70
2020/12/30 08:49:35;;;;;;;26.70;18.53;;;5.40;99.90;;;;;;5002637;28;20647;-70
2020/12/30 08:52:20;;;;;;;26.17;18.57;;;5.30;99.90;;;;;;5010037;28;20861;-70
2020/12/30 08:55:04;;;;;;;25.77;19.10;;;5.30;99.90;;;;;;5021373;28;20674;-68
2020/12/30 08:57:49;;;;;;;28.60;20.17;;;5.30;99.90;;;;;;5015255;28;20599;-69
2020/12/30 09:00:36;;;;;;;26.60;19.87;;;5.30;99.90;;;;;;5004759;28;20621;-68
2020/12/30 09:03:25;;;;;;;29.60;21.00;;;5.40;99.90;;;;;;5015814;28;20643;-67
2020/12/30 09:06:10;;;;;;;30.37;19.77;;;5.50;99.90;;;;;;5009433;28;20601;-67
2020/12/30 09:09:06;;;;;;;25.90;19.40;;;5.50;99.90;;;;;;5009459;28;20725;-66
2020/12/30 09:11:53;;;;;;;27.13;19.90;;;5.60;99.90;;;;;;5002119;28;20578;-66
2020/12/30 09:14:39;;;;;;;29.30;19.90;;;5.60;99.90;;;;;;5029621;28;20743;-66
2020/12/30 09:17:23;;;;;;;29.03;19.20;;;5.70;99.90;;;;;;5012856;28;20758;-67
2020/12/30 09:20:09;;;;;;;27.33;21.17;;;5.60;99.90;;;;;;5016276;28;20586;-66
2020/12/30 09:23:00;;;;;;;26.17;19.37;;;5.60;99.90;;;;;;4998547;28;21447;-66
2020/12/30 09:25:44;;;;;;;26.50;18.10;;;5.70;99.90;;;;;;4991226;28;20662;-68
2020/12/30 09:28:29;;;;;;;26.47;19.80;;;5.70;99.90;;;;;;5004830;28;20626;-67
2020/12/30 09:31:13;;;;;;;26.57;19.00;;;5.60;99.90;;;;;;5020135;28;20622;-67
2020/12/30 09:33:59;;;;;;;25.87;17.93;;;5.60;99.90;;;;;;5013187;28;21019;-68
2020/12/30 09:36:57;;;;;;;26.93;19.10;;;5.60;99.90;;;;;;5007883;28;22272;-67
2020/12/30 09:39:41;;;;;;;28.17;19.27;;;5.60;99.90;;;;;;5003792;28;20607;-67
2020/12/30 09:42:26;;;;;;;28.13;19.40;;;5.70;99.90;;;;;;5017572;28;20792;-68
2020/12/30 09:45:12;;;;;;;27.23;19.10;;;5.60;99.90;;;;;;5003359;28;20692;-68
2020/12/30 09:48:09;;;;;;;26.03;19.37;;;5.40;99.90;;;;;;5013621;28;20603;-69
2020/12/30 09:50:54;;;;;;;26.77;19.20;;;5.40;99.90;;;;;;5010541;28;20579;-68
2020/12/30 09:53:43;;;;;;;26.60;19.33;;;5.30;99.90;;;;;;5014812;28;20653;-69
2020/12/30 09:56:27;;;;;;;28.27;19.00;;;5.30;99.90;;;;;;5008608;28;20580;-69
2020/12/30 09:59:12;;;;;;;27.20;18.90;;;5.20;99.90;;;;;;5009786;28;20596;-68
2020/12/30 10:01:56;;;;;;;25.50;18.23;;;5.30;99.90;;;;;;5009826;28;20676;-68
2020/12/30 10:04:41;;;;;;;25.20;19.07;;;5.20;99.90;;;;;;5010607;28;20654;-68
2020/12/30 10:07:26;;;;;;;27.70;19.20;;;5.20;99.90;;;;;;5010427;28;20607;-69
2020/12/30 10:10:10;;;;;;;29.73;19.83;;;5.20;99.90;;;;;;5008173;28;20966;-68
2020/12/30 10:12:55;;;;;;;26.00;19.63;;;5.30;99.90;;;;;;5009610;28;20634;-68
2020/12/30 10:15:40;;;;;;;24.90;19.00;;;5.30;99.90;;;;;;5014565;28;20618;-69
2020/12/30 10:18:26;;;;;;;26.33;19.07;;;5.40;99.90;;;;;;5016725;28;20610;-68
2020/12/30 10:21:10;;;;;;;26.23;19.40;;;5.30;99.90;;;;;;5009832;28;20600;-69
2020/12/30 10:23:55;;;;;;;27.10;18.83;;;5.30;99.90;;;;;;5007735;28;20658;-68
2020/12/30 10:26:40;;;;;;;28.17;17.87;;;5.20;99.90;;;;;;5013403;28;20749;-68
2020/12/30 10:29:28;;;;;;;24.23;18.00;;;5.20;99.90;;;;;;5010402;28;20666;-68
2020/12/30 10:32:13;;;;;;;27.00;18.93;;;5.10;99.90;;;;;;5023084;28;21288;-69
2020/12/30 10:34:57;;;;;;;25.20;18.87;;;5.10;99.90;;;;;;5007392;28;20674;-69
2020/12/30 10:37:42;;;;;;;28.00;18.63;;;5.20;99.90;;;;;;5000600;28;20690;-68
2020/12/30 10:40:26;;;;;;;24.80;17.33;;;5.20;99.90;;;;;;5003390;28;20576;-68
2020/12/30 10:43:11;;;;;;;24.80;18.33;;;5.20;99.90;;;;;;5001096;28;20686;-68
2020/12/30 10:45:55;;;;;;;26.43;18.33;;;5.20;99.90;;;;;;4998827;28;20595;-68
2020/12/30 10:48:47;;;;;;;23.73;17.57;;;5.30;99.90;;;;;;5011175;28;20619;-68
2020/12/30 10:51:32;;;;;;;29.93;18.53;;;5.30;99.90;;;;;;5005431;28;20672;-68
2020/12/30 10:54:17;;;;;;;24.70;18.57;;;5.30;99.90;;;;;;5006249;28;20661;-68
2020/12/30 10:57:02;;;;;;;24.63;18.20;;;5.30;99.90;;;;;;5005781;28;21142;-67
2020/12/30 10:59:47;;;;;;;25.97;18.53;;;5.30;99.90;;;;;;5026146;28;20654;-68
2020/12/30 11:02:31;;;;;;;23.13;17.50;;;5.30;99.90;;;;;;5004668;28;20653;-68
2020/12/30 11:05:16;;;;;;;26.87;18.53;;;5.30;99.90;;;;;;5004250;28;20712;-68
2020/12/30 11:08:00;;;;;;;26.57;18.53;;;5.30;99.90;;;;;;5015919;28;21180;-68
2020/12/30 11:10:45;;;;;;;28.53;20.47;;;5.20;99.90;;;;;;5005283;28;21341;-68
2020/12/30 11:13:29;;;;;;;25.40;19.33;;;5.30;99.90;;;;;;5001100;28;21292;-68
2020/12/30 11:16:14;;;;;;;24.43;18.30;;;5.30;99.90;;;;;;5011283;28;20594;-69
2020/12/30 11:18:58;;;;;;;29.13;19.07;;;5.30;99.90;;;;;;5018539;28;20613;-69
2020/12/30 11:21:50;;;;;;;28.00;17.70;;;5.30;99.90;;;;;;5017432;28;20582;-68
2020/12/30 11:24:35;;;;;;;23.43;18.00;;;5.40;99.90;;;;;;5010938;28;20740;-67
2020/12/30 11:27:21;;;;;;;26.90;18.60;;;5.50;99.90;;;;;;5017368;28;20623;-67
2020/12/30 11:30:06;;;;;;;23.60;17.20;;;5.50;99.90;;;;;;5016379;28;20613;-68
2020/12/30 11:32:51;;;;;;;26.17;18.00;;;5.50;99.90;;;;;;5006179;28;20646;-68
2020/12/30 11:35:36;;;;;;;23.07;17.40;;;5.50;99.90;;;;;;5000498;28;20626;-68
2020/12/30 11:38:20;;;;;;;24.53;17.50;;;5.50;99.90;;;;;;5016602;28;21064;-68
2020/12/30 11:41:06;;;;;;;22.37;17.87;;;5.60;99.90;;;;;;5008749;28;20599;-68
2020/12/30 11:43:50;;;;;;;23.27;16.73;;;5.60;99.90;;;;;;5011316;28;20666;-70
2020/12/30 11:46:35;;;;;;;24.57;17.97;;;5.60;99.90;;;;;;5007156;28;20591;-69
2020/12/30 11:49:20;;;;;;;21.27;17.50;;;5.70;99.90;;;;;;5033683;28;20629;-69
2020/12/30 11:52:04;;;;;;;21.90;16.93;;;5.60;99.90;;;;;;5033295;28;20611;-70
2020/12/30 11:54:49;;;;;;;23.00;18.30;;;5.70;99.90;;;;;;5046120;28;20711;-69
2020/12/30 11:57:33;;;;;;;23.47;18.20;;;5.60;99.90;;;;;;5033033;28;20621;-69
2020/12/30 12:00:19;;;;;;;26.53;18.73;;;5.60;99.90;;;;;;5024205;28;20666;-69
2020/12/30 12:03:03;;;;;;;23.13;16.93;;;5.60;99.90;;;;;;5001272;28;20654;-69
2020/12/30 12:05:51;;;;;;;23.93;18.13;;;5.60;99.90;;;;;;5029848;28;20614;-69
2020/12/30 12:08:36;;;;;;;23.43;17.67;;;5.50;99.90;;;;;;5010770;28;20627;-69
2020/12/30 12:11:21;;;;;;;25.13;18.10;;;5.50;99.90;;;;;;5009079;28;21301;-69
2020/12/30 12:14:05;;;;;;;26.70;18.67;;;5.60;99.90;;;;;;5013435;28;20703;-69
2020/12/30 12:16:54;;;;;;;23.70;17.80;;;5.70;99.90;;;;;;5024638;28;20607;-69
2020/12/30 12:19:39;;;;;;;25.73;18.37;;;5.70;99.90;;;;;;5014154;28;20924;-69
2020/12/30 12:22:25;;;;;;;24.43;17.23;;;5.60;99.90;;;;;;5023475;28;20646;-68
2020/12/30 12:25:10;;;;;;;26.03;18.87;;;5.60;99.90;;;;;;5020994;28;20707;-69
2020/12/30 12:27:54;;;;;;;24.77;18.27;;;5.60;99.90;;;;;;5017762;28;20734;-69
2020/12/30 12:30:39;;;;;;;28.00;20.53;;;5.50;99.90;;;;;;5015395;28;20587;-69
2020/12/30 12:33:23;;;;;;;25.23;18.33;;;5.50;99.90;;;;;;5011462;28;21272;-69
2020/12/30 12:36:11;;;;;;;27.27;19.30;;;5.50;99.90;;;;;;5000604;28;20781;-68
2020/12/30 12:38:56;;;;;;;29.30;19.67;;;5.50;99.90;;;;;;5013419;28;21456;-68
2020/12/30 12:41:41;;;;;;;24.50;18.70;;;5.60;99.90;;;;;;5014297;28;20969;-69
2020/12/30 12:44:25;;;;;;;24.50;18.37;;;5.60;99.90;;;;;;5020459;28;21065;-69
2020/12/30 12:47:10;;;;;;;26.00;19.23;;;5.70;99.90;;;;;;5010521;28;20595;-68
2020/12/30 12:49:54;;;;;;;25.07;18.33;;;5.70;99.90;;;;;;5015502;28;20597;-68
2020/12/30 12:52:39;;;;;;;23.50;17.83;;;5.70;99.90;;;;;;5005803;28;20650;-68
2020/12/30 12:55:23;;;;;;;23.97;17.80;;;5.60;99.90;;;;;;5008364;28;20655;-68
2020/12/30 12:58:08;;;;;;;24.83;19.00;;;5.60;99.90;;;;;;5013774;28;20735;-68
2020/12/30 13:00:52;;;;;;;23.60;18.20;;;5.60;99.90;;;;;;5007385;28;20594;-69
2020/12/30 13:03:37;;;;;;;22.73;17.73;;;5.70;99.90;;;;;;5008028;28;20729;-68
2020/12/30 13:06:29;;;;;;;31.40;18.43;;;5.60;99.90;;;;;;5011982;28;20695;-69
2020/12/30 13:09:15;;;;;;;23.50;18.03;;;5.70;99.90;;;;;;5009033;28;20615;-68
2020/12/30 13:11:59;;;;;;;27.03;19.50;;;5.70;99.90;;;;;;5005899;28;20595;-69
2020/12/30 13:14:44;;;;;;;25.17;18.30;;;5.70;99.90;;;;;;5005910;28;20670;-69
2020/12/30 13:17:28;;;;;;;26.90;18.87;;;5.80;99.90;;;;;;5015266;28;20597;-69
2020/12/30 13:20:13;;;;;;;25.70;19.57;;;5.80;99.90;;;;;;5015893;28;20745;-68
2020/12/30 13:22:57;;;;;;;25.23;19.37;;;5.70;99.90;;;;;;5011426;28;20651;-68
2020/12/30 13:25:42;;;;;;;27.97;19.47;;;5.70;99.90;;;;;;5004934;28;20598;-69
2020/12/30 13:28:27;;;;;;;23.93;18.67;;;5.70;99.90;;;;;;5013194;28;21098;-69
2020/12/30 13:31:12;;;;;;;27.43;19.90;;;5.70;99.90;;;;;;5009653;28;20851;-68
2020/12/30 13:33:57;;;;;;;31.77;20.43;;;5.80;99.90;;;;;;5009109;28;21271;-68
2020/12/30 13:36:42;;;;;;;27.30;20.20;;;5.70;99.90;;;;;;5015466;28;21466;-68
2020/12/30 13:39:26;;;;;;;29.20;19.80;;;5.80;99.90;;;;;;5009740;28;20578;-68
2020/12/30 13:42:13;;;;;;;25.77;19.90;;;5.90;99.90;;;;;;5015346;28;21150;-68
2020/12/30 13:44:57;;;;;;;26.77;20.50;;;5.90;99.90;;;;;;5009038;28;21244;-69
2020/12/30 13:47:42;;;;;;;29.63;20.40;;;6.10;99.90;;;;;;4995457;28;21085;-68
2020/12/30 13:50:27;;;;;;;26.50;19.93;;;6.00;99.90;;;;;;5014027;28;20587;-68
2020/12/30 13:53:12;;;;;;;26.93;19.87;;;6.00;99.90;;;;;;5000929;28;20690;-68
2020/12/30 13:55:56;;;;;;;28.30;21.40;;;5.90;99.90;;;;;;5005505;28;20649;-68
2020/12/30 13:58:41;;;;;;;25.03;19.20;;;5.80;99.90;;;;;;5019178;28;20678;-68
2020/12/30 14:01:25;;;;;;;27.17;18.03;;;5.90;99.90;;;;;;5015741;28;20599;-69
2020/12/30 14:04:12;;;;;;;25.13;19.57;;;5.90;99.90;;;;;;4999436;28;20642;-67
2020/12/30 14:07:00;;;;;;;26.70;18.03;;;5.80;99.90;;;;;;5017191;28;21248;-68
2020/12/30 14:09:44;;;;;;;26.13;18.53;;;5.90;99.90;;;;;;5000797;28;20590;-67
2020/12/30 14:12:29;;;;;;;26.60;18.83;;;5.90;99.90;;;;;;4999137;28;20697;-68